sensor_id;sensor_type;location;lat;lon;timestamp;P1;durP1;ratioP1;P2;durP2;ratioP2
70707;SDS011;58277;47.316;18.908;2024-01-07T00:01:21;32.25;;;13.50;;
70707;SDS011;58277;47.316;18.908;2024-01-07T00:03:44;30.33;;;12.23;;
70707;SDS011;58277;47.316;18.908;2024-01-07T00:06:07;31.17;;;13.30;;
70707;SDS011;58277;47.316;18.908;2024-01-07T00:08:33;30.15;;;12.65;;
70707;SDS011;58277;47.316;18.908;2024-01-07T00:10:55;30.13;;;11.98;;
70707;SDS011;58277;47.316;18.908;2024-01-07T00:13:19;31.25;;;12.52;;
70707;SDS011;58277;47.316;18.908;2024-01-07T00:15:41;29.37;;;12.43;;
70707;SDS011;58277;47.316;18.908;2024-01-07T00:18:04;29.15;;;11.38;;
70707;SDS011;58277;47.316;18.908;2024-01-07T00:20:31;29.58;;;12.23;;
70707;SDS011;58277;47.316;18.908;2024-01-07T00:22:53;28.52;;;12.07;;
70707;SDS011;58277;47.316;18.908;2024-01-07T00:25:16;30.17;;;12.50;;
70707;SDS011;58277;47.316;18.908;2024-01-07T00:27:40;30.43;;;12.50;;
70707;SDS011;58277;47.316;18.908;2024-01-07T00:30:03;30.48;;;12.45;;
70707;SDS011;58277;47.316;18.908;2024-01-07T00:32:31;28.67;;;11.73;;
70707;SDS011;58277;47.316;18.908;2024-01-07T00:34:54;29.27;;;12.60;;
70707;SDS011;58277;47.316;18.908;2024-01-07T00:37:17;29.80;;;12.63;;
70707;SDS011;58277;47.316;18.908;2024-01-07T00:39:40;29.57;;;12.50;;
70707;SDS011;58277;47.316;18.908;2024-01-07T00:42:05;29.58;;;11.85;;
70707;SDS011;58277;47.316;18.908;2024-01-07T00:44:27;28.98;;;12.52;;
70707;SDS011;58277;47.316;18.908;2024-01-07T00:46:50;29.88;;;12.02;;
70707;SDS011;58277;47.316;18.908;2024-01-07T00:49:13;28.35;;;11.70;;
70707;SDS011;58277;47.316;18.908;2024-01-07T00:51:36;26.90;;;12.63;;
70707;SDS011;58277;47.316;18.908;2024-01-07T00:53:58;30.10;;;12.60;;
70707;SDS011;58277;47.316;18.908;2024-01-07T00:56:21;29.15;;;11.98;;
70707;SDS011;58277;47.316;18.908;2024-01-07T00:58:44;28.00;;;10.93;;
70707;SDS011;58277;47.316;18.908;2024-01-07T01:01:06;28.08;;;12.00;;
70707;SDS011;58277;47.316;18.908;2024-01-07T01:03:30;26.87;;;11.67;;
70707;SDS011;58277;47.316;18.908;2024-01-07T01:05:53;25.83;;;11.05;;
70707;SDS011;58277;47.316;18.908;2024-01-07T01:08:16;27.33;;;11.20;;
70707;SDS011;58277;47.316;18.908;2024-01-07T01:10:39;26.45;;;11.50;;
70707;SDS011;58277;47.316;18.908;2024-01-07T01:13:02;25.67;;;11.30;;
70707;SDS011;58277;47.316;18.908;2024-01-07T01:15:25;26.93;;;11.53;;
70707;SDS011;58277;47.316;18.908;2024-01-07T01:17:48;26.67;;;11.48;;
70707;SDS011;58277;47.316;18.908;2024-01-07T01:20:11;26.85;;;12.05;;
70707;SDS011;58277;47.316;18.908;2024-01-07T01:22:33;25.30;;;11.10;;
70707;SDS011;58277;47.316;18.908;2024-01-07T01:24:56;26.33;;;11.30;;
70707;SDS011;58277;47.316;18.908;2024-01-07T01:27:19;24.07;;;10.33;;
70707;SDS011;58277;47.316;18.908;2024-01-07T01:29:42;24.65;;;11.05;;
70707;SDS011;58277;47.316;18.908;2024-01-07T01:32:04;26.08;;;11.48;;
70707;SDS011;58277;47.316;18.908;2024-01-07T01:34:28;23.52;;;10.63;;
70707;SDS011;58277;47.316;18.908;2024-01-07T01:36:51;24.42;;;11.05;;
70707;SDS011;58277;47.316;18.908;2024-01-07T01:39:14;24.27;;;10.90;;
70707;SDS011;58277;47.316;18.908;2024-01-07T01:41:36;23.45;;;10.68;;
70707;SDS011;58277;47.316;18.908;2024-01-07T01:43:59;24.63;;;10.75;;
70707;SDS011;58277;47.316;18.908;2024-01-07T01:46:23;23.33;;;10.85;;
70707;SDS011;58277;47.316;18.908;2024-01-07T01:48:46;24.90;;;10.52;;
70707;SDS011;58277;47.316;18.908;2024-01-07T01:51:09;23.17;;;10.67;;
70707;SDS011;58277;47.316;18.908;2024-01-07T01:53:32;21.98;;;10.13;;
70707;SDS011;58277;47.316;18.908;2024-01-07T01:55:56;19.33;;;9.38;;
70707;SDS011;58277;47.316;18.908;2024-01-07T01:58:20;20.23;;;9.75;;
70707;SDS011;58277;47.316;18.908;2024-01-07T02:00:44;18.70;;;8.65;;
70707;SDS011;58277;47.316;18.908;2024-01-07T02:03:07;19.63;;;9.50;;
70707;SDS011;58277;47.316;18.908;2024-01-07T02:05:30;19.70;;;9.65;;
70707;SDS011;58277;47.316;18.908;2024-01-07T02:07:53;19.67;;;9.00;;
70707;SDS011;58277;47.316;18.908;2024-01-07T02:10:18;19.20;;;8.77;;
70707;SDS011;58277;47.316;18.908;2024-01-07T02:12:41;20.23;;;9.52;;
70707;SDS011;58277;47.316;18.908;2024-01-07T02:15:04;17.60;;;7.80;;
70707;SDS011;58277;47.316;18.908;2024-01-07T02:17:27;18.98;;;8.80;;
70707;SDS011;58277;47.316;18.908;2024-01-07T02:19:50;18.30;;;8.15;;
70707;SDS011;58277;47.316;18.908;2024-01-07T02:22:13;17.52;;;8.35;;
70707;SDS011;58277;47.316;18.908;2024-01-07T02:24:35;17.55;;;8.15;;
70707;SDS011;58277;47.316;18.908;2024-01-07T02:26:58;19.50;;;8.13;;
70707;SDS011;58277;47.316;18.908;2024-01-07T02:29:24;16.85;;;8.18;;
70707;SDS011;58277;47.316;18.908;2024-01-07T02:31:47;18.55;;;8.50;;
70707;SDS011;58277;47.316;18.908;2024-01-07T02:34:09;17.58;;;8.15;;
70707;SDS011;58277;47.316;18.908;2024-01-07T02:36:33;17.23;;;8.50;;
70707;SDS011;58277;47.316;18.908;2024-01-07T02:38:56;18.17;;;8.20;;
70707;SDS011;58277;47.316;18.908;2024-01-07T02:41:18;16.08;;;8.30;;
70707;SDS011;58277;47.316;18.908;2024-01-07T02:43:42;18.42;;;8.18;;
70707;SDS011;58277;47.316;18.908;2024-01-07T02:46:04;17.77;;;8.40;;
70707;SDS011;58277;47.316;18.908;2024-01-07T02:48:27;16.48;;;8.38;;
70707;SDS011;58277;47.316;18.908;2024-01-07T02:50:50;16.53;;;7.93;;
70707;SDS011;58277;47.316;18.908;2024-01-07T02:53:13;18.48;;;8.80;;
70707;SDS011;58277;47.316;18.908;2024-01-07T02:55:36;17.27;;;8.18;;
70707;SDS011;58277;47.316;18.908;2024-01-07T02:57:58;18.60;;;8.63;;
70707;SDS011;58277;47.316;18.908;2024-01-07T03:00:21;17.30;;;8.63;;
70707;SDS011;58277;47.316;18.908;2024-01-07T03:02:44;17.53;;;8.33;;
70707;SDS011;58277;47.316;18.908;2024-01-07T03:05:07;18.17;;;8.43;;
70707;SDS011;58277;47.316;18.908;2024-01-07T03:07:30;14.70;;;7.50;;
70707;SDS011;58277;47.316;18.908;2024-01-07T03:09:53;17.02;;;7.35;;
70707;SDS011;58277;47.316;18.908;2024-01-07T03:12:16;14.77;;;7.38;;
70707;SDS011;58277;47.316;18.908;2024-01-07T03:14:40;15.60;;;7.53;;
70707;SDS011;58277;47.316;18.908;2024-01-07T03:17:03;18.35;;;8.07;;
70707;SDS011;58277;47.316;18.908;2024-01-07T03:19:26;16.20;;;7.60;;
70707;SDS011;58277;47.316;18.908;2024-01-07T03:21:50;16.83;;;7.93;;
70707;SDS011;58277;47.316;18.908;2024-01-07T03:24:12;15.15;;;6.88;;
70707;SDS011;58277;47.316;18.908;2024-01-07T03:26:35;14.30;;;6.63;;
70707;SDS011;58277;47.316;18.908;2024-01-07T03:28:59;14.00;;;6.70;;
70707;SDS011;58277;47.316;18.908;2024-01-07T03:31:22;12.65;;;6.57;;
70707;SDS011;58277;47.316;18.908;2024-01-07T03:33:46;13.63;;;6.70;;
70707;SDS011;58277;47.316;18.908;2024-01-07T03:36:11;12.07;;;6.25;;
70707;SDS011;58277;47.316;18.908;2024-01-07T03:38:36;12.30;;;6.37;;
70707;SDS011;58277;47.316;18.908;2024-01-07T03:40:59;11.25;;;6.32;;
70707;SDS011;58277;47.316;18.908;2024-01-07T03:43:22;11.48;;;6.20;;
70707;SDS011;58277;47.316;18.908;2024-01-07T03:45:45;12.50;;;6.20;;
70707;SDS011;58277;47.316;18.908;2024-01-07T03:48:08;12.07;;;6.13;;
70707;SDS011;58277;47.316;18.908;2024-01-07T03:50:33;12.20;;;6.13;;
70707;SDS011;58277;47.316;18.908;2024-01-07T03:52:55;11.18;;;5.88;;
70707;SDS011;58277;47.316;18.908;2024-01-07T03:55:18;11.80;;;6.15;;
70707;SDS011;58277;47.316;18.908;2024-01-07T03:57:41;12.70;;;6.05;;
70707;SDS011;58277;47.316;18.908;2024-01-07T04:00:04;10.77;;;5.30;;
70707;SDS011;58277;47.316;18.908;2024-01-07T04:02:32;11.07;;;5.70;;
70707;SDS011;58277;47.316;18.908;2024-01-07T04:04:55;11.93;;;5.55;;
70707;SDS011;58277;47.316;18.908;2024-01-07T04:07:17;13.00;;;6.30;;
70707;SDS011;58277;47.316;18.908;2024-01-07T04:09:42;14.82;;;6.20;;
70707;SDS011;58277;47.316;18.908;2024-01-07T04:12:08;12.05;;;6.15;;
70707;SDS011;58277;47.316;18.908;2024-01-07T04:14:36;13.37;;;6.10;;
70707;SDS011;58277;47.316;18.908;2024-01-07T04:16:58;12.23;;;6.07;;
70707;SDS011;58277;47.316;18.908;2024-01-07T04:19:21;11.82;;;6.20;;
70707;SDS011;58277;47.316;18.908;2024-01-07T04:21:47;11.52;;;6.03;;
70707;SDS011;58277;47.316;18.908;2024-01-07T04:24:09;11.68;;;6.45;;
70707;SDS011;58277;47.316;18.908;2024-01-07T04:26:32;13.07;;;6.53;;
70707;SDS011;58277;47.316;18.908;2024-01-07T04:28:54;12.63;;;6.50;;
70707;SDS011;58277;47.316;18.908;2024-01-07T04:31:17;13.63;;;6.75;;
70707;SDS011;58277;47.316;18.908;2024-01-07T04:33:40;12.20;;;6.35;;
70707;SDS011;58277;47.316;18.908;2024-01-07T04:36:03;13.45;;;6.35;;
70707;SDS011;58277;47.316;18.908;2024-01-07T04:38:26;11.97;;;6.10;;
70707;SDS011;58277;47.316;18.908;2024-01-07T04:40:49;11.48;;;6.35;;
70707;SDS011;58277;47.316;18.908;2024-01-07T04:43:13;11.40;;;5.70;;
70707;SDS011;58277;47.316;18.908;2024-01-07T04:45:35;11.25;;;6.00;;
70707;SDS011;58277;47.316;18.908;2024-01-07T04:47:58;12.90;;;6.47;;
70707;SDS011;58277;47.316;18.908;2024-01-07T04:50:21;10.23;;;5.77;;
70707;SDS011;58277;47.316;18.908;2024-01-07T04:52:43;12.82;;;6.20;;
70707;SDS011;58277;47.316;18.908;2024-01-07T04:55:06;11.10;;;5.97;;
70707;SDS011;58277;47.316;18.908;2024-01-07T04:57:29;12.60;;;6.38;;
70707;SDS011;58277;47.316;18.908;2024-01-07T04:59:52;12.30;;;6.10;;
70707;SDS011;58277;47.316;18.908;2024-01-07T05:02:15;12.27;;;5.90;;
70707;SDS011;58277;47.316;18.908;2024-01-07T05:04:38;11.88;;;6.13;;
70707;SDS011;58277;47.316;18.908;2024-01-07T05:07:01;11.00;;;5.57;;
70707;SDS011;58277;47.316;18.908;2024-01-07T05:09:23;10.75;;;5.60;;
70707;SDS011;58277;47.316;18.908;2024-01-07T05:11:46;11.40;;;5.47;;
70707;SDS011;58277;47.316;18.908;2024-01-07T05:14:10;10.13;;;5.40;;
70707;SDS011;58277;47.316;18.908;2024-01-07T05:16:34;9.43;;;5.13;;
70707;SDS011;58277;47.316;18.908;2024-01-07T05:18:56;10.35;;;5.60;;
70707;SDS011;58277;47.316;18.908;2024-01-07T05:21:19;10.73;;;5.43;;
70707;SDS011;58277;47.316;18.908;2024-01-07T05:23:42;14.63;;;6.30;;
70707;SDS011;58277;47.316;18.908;2024-01-07T05:26:05;13.03;;;6.13;;
70707;SDS011;58277;47.316;18.908;2024-01-07T05:28:27;10.18;;;5.47;;
70707;SDS011;58277;47.316;18.908;2024-01-07T05:30:50;9.73;;;5.13;;
70707;SDS011;58277;47.316;18.908;2024-01-07T05:33:13;11.52;;;5.75;;
70707;SDS011;58277;47.316;18.908;2024-01-07T05:35:36;10.18;;;5.22;;
70707;SDS011;58277;47.316;18.908;2024-01-07T05:37:58;9.60;;;5.07;;
70707;SDS011;58277;47.316;18.908;2024-01-07T05:40:21;9.77;;;5.20;;
70707;SDS011;58277;47.316;18.908;2024-01-07T05:42:44;11.68;;;5.93;;
70707;SDS011;58277;47.316;18.908;2024-01-07T05:45:07;12.27;;;5.95;;
70707;SDS011;58277;47.316;18.908;2024-01-07T05:47:30;10.70;;;5.47;;
70707;SDS011;58277;47.316;18.908;2024-01-07T05:49:53;11.37;;;6.20;;
70707;SDS011;58277;47.316;18.908;2024-01-07T05:52:15;10.68;;;5.70;;
70707;SDS011;58277;47.316;18.908;2024-01-07T05:54:38;11.10;;;5.80;;
70707;SDS011;58277;47.316;18.908;2024-01-07T05:57:02;11.25;;;5.72;;
70707;SDS011;58277;47.316;18.908;2024-01-07T05:59:25;12.95;;;6.18;;
70707;SDS011;58277;47.316;18.908;2024-01-07T06:01:47;11.10;;;5.20;;
70707;SDS011;58277;47.316;18.908;2024-01-07T06:04:10;7.88;;;4.90;;
70707;SDS011;58277;47.316;18.908;2024-01-07T06:06:33;9.90;;;5.35;;
70707;SDS011;58277;47.316;18.908;2024-01-07T06:08:57;9.55;;;5.00;;
70707;SDS011;58277;47.316;18.908;2024-01-07T06:11:19;11.43;;;5.45;;
70707;SDS011;58277;47.316;18.908;2024-01-07T06:13:42;11.77;;;5.60;;
70707;SDS011;58277;47.316;18.908;2024-01-07T06:16:05;13.85;;;5.75;;
70707;SDS011;58277;47.316;18.908;2024-01-07T06:18:28;11.35;;;5.20;;
70707;SDS011;58277;47.316;18.908;2024-01-07T06:20:51;10.00;;;5.00;;
70707;SDS011;58277;47.316;18.908;2024-01-07T06:23:14;8.48;;;4.80;;
70707;SDS011;58277;47.316;18.908;2024-01-07T06:25:36;7.77;;;4.47;;
70707;SDS011;58277;47.316;18.908;2024-01-07T06:27:59;9.23;;;4.57;;
70707;SDS011;58277;47.316;18.908;2024-01-07T06:30:22;8.77;;;4.60;;
70707;SDS011;58277;47.316;18.908;2024-01-07T06:32:45;9.43;;;4.72;;
70707;SDS011;58277;47.316;18.908;2024-01-07T06:35:08;12.50;;;5.80;;
70707;SDS011;58277;47.316;18.908;2024-01-07T06:37:30;12.80;;;6.10;;
70707;SDS011;58277;47.316;18.908;2024-01-07T06:39:53;14.45;;;6.35;;
70707;SDS011;58277;47.316;18.908;2024-01-07T06:42:16;14.55;;;6.85;;
70707;SDS011;58277;47.316;18.908;2024-01-07T06:44:39;14.10;;;6.70;;
70707;SDS011;58277;47.316;18.908;2024-01-07T06:47:02;16.83;;;8.77;;
70707;SDS011;58277;47.316;18.908;2024-01-07T06:49:25;12.97;;;6.13;;
70707;SDS011;58277;47.316;18.908;2024-01-07T06:51:47;12.73;;;6.35;;
70707;SDS011;58277;47.316;18.908;2024-01-07T06:54:10;12.48;;;6.32;;
70707;SDS011;58277;47.316;18.908;2024-01-07T06:56:37;12.80;;;6.50;;
70707;SDS011;58277;47.316;18.908;2024-01-07T06:59:00;12.98;;;7.03;;
70707;SDS011;58277;47.316;18.908;2024-01-07T07:01:23;12.47;;;6.50;;
70707;SDS011;58277;47.316;18.908;2024-01-07T07:03:46;12.10;;;6.57;;
70707;SDS011;58277;47.316;18.908;2024-01-07T07:06:09;14.63;;;7.05;;
70707;SDS011;58277;47.316;18.908;2024-01-07T07:08:33;13.13;;;7.00;;
70707;SDS011;58277;47.316;18.908;2024-01-07T07:10:56;15.27;;;7.53;;
70707;SDS011;58277;47.316;18.908;2024-01-07T07:13:18;17.70;;;8.70;;
70707;SDS011;58277;47.316;18.908;2024-01-07T07:15:41;15.77;;;8.10;;
70707;SDS011;58277;47.316;18.908;2024-01-07T07:18:04;17.15;;;8.38;;
70707;SDS011;58277;47.316;18.908;2024-01-07T07:20:27;13.77;;;7.20;;
70707;SDS011;58277;47.316;18.908;2024-01-07T07:22:49;13.23;;;6.72;;
70707;SDS011;58277;47.316;18.908;2024-01-07T07:25:12;12.70;;;6.73;;
70707;SDS011;58277;47.316;18.908;2024-01-07T07:27:35;16.55;;;7.03;;
70707;SDS011;58277;47.316;18.908;2024-01-07T07:29:58;12.93;;;7.00;;
70707;SDS011;58277;47.316;18.908;2024-01-07T07:32:21;13.30;;;7.05;;
70707;SDS011;58277;47.316;18.908;2024-01-07T07:34:43;13.90;;;7.30;;
70707;SDS011;58277;47.316;18.908;2024-01-07T07:37:06;13.27;;;7.37;;
70707;SDS011;58277;47.316;18.908;2024-01-07T07:39:29;15.32;;;7.65;;
70707;SDS011;58277;47.316;18.908;2024-01-07T07:41:52;13.45;;;7.03;;
70707;SDS011;58277;47.316;18.908;2024-01-07T07:44:14;15.02;;;7.60;;
70707;SDS011;58277;47.316;18.908;2024-01-07T07:46:37;15.27;;;7.45;;
70707;SDS011;58277;47.316;18.908;2024-01-07T07:49:00;15.80;;;8.00;;
70707;SDS011;58277;47.316;18.908;2024-01-07T07:51:23;15.32;;;7.63;;
70707;SDS011;58277;47.316;18.908;2024-01-07T07:53:46;13.75;;;7.25;;
70707;SDS011;58277;47.316;18.908;2024-01-07T07:56:09;13.80;;;7.28;;
70707;SDS011;58277;47.316;18.908;2024-01-07T07:58:32;14.00;;;6.75;;
70707;SDS011;58277;47.316;18.908;2024-01-07T08:00:55;15.33;;;7.67;;
70707;SDS011;58277;47.316;18.908;2024-01-07T08:03:17;15.98;;;7.70;;
70707;SDS011;58277;47.316;18.908;2024-01-07T08:05:40;15.10;;;8.23;;
70707;SDS011;58277;47.316;18.908;2024-01-07T08:08:04;15.45;;;7.47;;
70707;SDS011;58277;47.316;18.908;2024-01-07T08:10:27;16.13;;;7.70;;
70707;SDS011;58277;47.316;18.908;2024-01-07T08:12:51;14.73;;;7.50;;
70707;SDS011;58277;47.316;18.908;2024-01-07T08:15:13;14.15;;;7.10;;
70707;SDS011;58277;47.316;18.908;2024-01-07T08:17:37;15.25;;;7.22;;
70707;SDS011;58277;47.316;18.908;2024-01-07T08:19:59;13.40;;;7.00;;
70707;SDS011;58277;47.316;18.908;2024-01-07T08:22:24;14.30;;;7.10;;
70707;SDS011;58277;47.316;18.908;2024-01-07T08:24:47;12.47;;;6.67;;
70707;SDS011;58277;47.316;18.908;2024-01-07T08:27:10;13.88;;;7.00;;
70707;SDS011;58277;47.316;18.908;2024-01-07T08:29:33;15.18;;;7.22;;
70707;SDS011;58277;47.316;18.908;2024-01-07T08:31:55;13.43;;;6.82;;
70707;SDS011;58277;47.316;18.908;2024-01-07T08:34:18;14.57;;;7.55;;
70707;SDS011;58277;47.316;18.908;2024-01-07T08:36:41;13.67;;;7.20;;
70707;SDS011;58277;47.316;18.908;2024-01-07T08:39:04;14.50;;;7.25;;
70707;SDS011;58277;47.316;18.908;2024-01-07T08:41:26;13.48;;;7.05;;
70707;SDS011;58277;47.316;18.908;2024-01-07T08:43:49;13.57;;;6.82;;
70707;SDS011;58277;47.316;18.908;2024-01-07T08:46:12;13.05;;;6.95;;
70707;SDS011;58277;47.316;18.908;2024-01-07T08:48:36;12.93;;;7.00;;
70707;SDS011;58277;47.316;18.908;2024-01-07T08:50:59;14.55;;;7.10;;
70707;SDS011;58277;47.316;18.908;2024-01-07T08:53:22;15.50;;;7.63;;
70707;SDS011;58277;47.316;18.908;2024-01-07T08:55:45;11.82;;;6.72;;
70707;SDS011;58277;47.316;18.908;2024-01-07T08:58:07;12.68;;;6.80;;
70707;SDS011;58277;47.316;18.908;2024-01-07T09:00:30;12.23;;;6.53;;
70707;SDS011;58277;47.316;18.908;2024-01-07T09:02:54;12.07;;;6.55;;
70707;SDS011;58277;47.316;18.908;2024-01-07T09:05:16;12.20;;;6.68;;
70707;SDS011;58277;47.316;18.908;2024-01-07T09:07:39;13.40;;;7.32;;
70707;SDS011;58277;47.316;18.908;2024-01-07T09:10:02;12.52;;;6.60;;
70707;SDS011;58277;47.316;18.908;2024-01-07T09:12:26;11.27;;;6.10;;
70707;SDS011;58277;47.316;18.908;2024-01-07T09:14:49;12.93;;;5.53;;
70707;SDS011;58277;47.316;18.908;2024-01-07T09:17:12;11.43;;;5.88;;
70707;SDS011;58277;47.316;18.908;2024-01-07T09:19:34;10.68;;;5.55;;
70707;SDS011;58277;47.316;18.908;2024-01-07T09:21:57;11.60;;;5.45;;
70707;SDS011;58277;47.316;18.908;2024-01-07T09:24:20;8.60;;;4.97;;
70707;SDS011;58277;47.316;18.908;2024-01-07T09:26:43;8.80;;;4.70;;
70707;SDS011;58277;47.316;18.908;2024-01-07T09:29:06;7.88;;;4.40;;
70707;SDS011;58277;47.316;18.908;2024-01-07T09:31:28;7.93;;;4.25;;
70707;SDS011;58277;47.316;18.908;2024-01-07T09:33:51;7.97;;;4.40;;
70707;SDS011;58277;47.316;18.908;2024-01-07T09:36:15;7.77;;;4.07;;
70707;SDS011;58277;47.316;18.908;2024-01-07T09:38:51;7.40;;;4.38;;
70707;SDS011;58277;47.316;18.908;2024-01-07T09:41:16;7.03;;;3.70;;
70707;SDS011;58277;47.316;18.908;2024-01-07T09:43:39;7.47;;;3.80;;
70707;SDS011;58277;47.316;18.908;2024-01-07T09:46:02;7.72;;;4.13;;
70707;SDS011;58277;47.316;18.908;2024-01-07T09:48:25;8.90;;;4.50;;
70707;SDS011;58277;47.316;18.908;2024-01-07T09:50:48;8.93;;;4.43;;
70707;SDS011;58277;47.316;18.908;2024-01-07T09:53:14;7.68;;;4.07;;
70707;SDS011;58277;47.316;18.908;2024-01-07T09:55:47;8.05;;;4.30;;
70707;SDS011;58277;47.316;18.908;2024-01-07T09:58:18;8.73;;;4.20;;
70707;SDS011;58277;47.316;18.908;2024-01-07T10:00:41;6.80;;;3.80;;
70707;SDS011;58277;47.316;18.908;2024-01-07T10:03:03;8.48;;;4.50;;
70707;SDS011;58277;47.316;18.908;2024-01-07T10:05:26;7.78;;;4.20;;
70707;SDS011;58277;47.316;18.908;2024-01-07T10:07:49;9.30;;;4.03;;
70707;SDS011;58277;47.316;18.908;2024-01-07T10:10:13;6.95;;;3.67;;
70707;SDS011;58277;47.316;18.908;2024-01-07T10:12:40;7.47;;;3.93;;
70707;SDS011;58277;47.316;18.908;2024-01-07T10:15:02;7.35;;;4.20;;
70707;SDS011;58277;47.316;18.908;2024-01-07T10:17:25;7.97;;;4.32;;
70707;SDS011;58277;47.316;18.908;2024-01-07T10:19:50;8.30;;;4.18;;
70707;SDS011;58277;47.316;18.908;2024-01-07T10:22:13;8.48;;;4.20;;
70707;SDS011;58277;47.316;18.908;2024-01-07T10:24:38;8.67;;;4.60;;
70707;SDS011;58277;47.316;18.908;2024-01-07T10:27:03;7.68;;;4.43;;
70707;SDS011;58277;47.316;18.908;2024-01-07T10:29:26;8.05;;;4.50;;
70707;SDS011;58277;47.316;18.908;2024-01-07T10:31:49;8.05;;;4.60;;
70707;SDS011;58277;47.316;18.908;2024-01-07T10:34:13;8.85;;;4.75;;
70707;SDS011;58277;47.316;18.908;2024-01-07T10:36:36;6.70;;;4.10;;
70707;SDS011;58277;47.316;18.908;2024-01-07T10:38:59;8.93;;;4.32;;
70707;SDS011;58277;47.316;18.908;2024-01-07T10:41:22;9.88;;;4.53;;
70707;SDS011;58277;47.316;18.908;2024-01-07T10:43:47;9.02;;;4.82;;
70707;SDS011;58277;47.316;18.908;2024-01-07T10:46:11;8.02;;;4.07;;
70707;SDS011;58277;47.316;18.908;2024-01-07T10:48:37;7.30;;;4.30;;
70707;SDS011;58277;47.316;18.908;2024-01-07T10:51:03;8.23;;;4.47;;
70707;SDS011;58277;47.316;18.908;2024-01-07T10:53:27;7.88;;;4.30;;
70707;SDS011;58277;47.316;18.908;2024-01-07T10:55:56;7.72;;;4.40;;
70707;SDS011;58277;47.316;18.908;2024-01-07T10:58:26;8.10;;;4.15;;
70707;SDS011;58277;47.316;18.908;2024-01-07T11:00:48;7.53;;;4.00;;
70707;SDS011;58277;47.316;18.908;2024-01-07T11:03:14;8.48;;;4.30;;
70707;SDS011;58277;47.316;18.908;2024-01-07T11:10:55;9.48;;;5.07;;
70707;SDS011;58277;47.316;18.908;2024-01-07T11:13:34;8.13;;;4.73;;
70707;SDS011;58277;47.316;18.908;2024-01-07T11:15:58;10.73;;;4.90;;
70707;SDS011;58277;47.316;18.908;2024-01-07T11:18:21;10.45;;;4.80;;
70707;SDS011;58277;47.316;18.908;2024-01-07T11:20:45;9.88;;;4.93;;
70707;SDS011;58277;47.316;18.908;2024-01-07T11:25:56;10.90;;;5.40;;
70707;SDS011;58277;47.316;18.908;2024-01-07T11:28:23;8.82;;;4.95;;
70707;SDS011;58277;47.316;18.908;2024-01-07T11:31:10;10.60;;;5.10;;
70707;SDS011;58277;47.316;18.908;2024-01-07T11:33:36;9.45;;;4.53;;
70707;SDS011;58277;47.316;18.908;2024-01-07T11:35:59;10.15;;;5.00;;
70707;SDS011;58277;47.316;18.908;2024-01-07T11:38:25;9.67;;;4.30;;
70707;SDS011;58277;47.316;18.908;2024-01-07T11:40:48;8.18;;;4.60;;
70707;SDS011;58277;47.316;18.908;2024-01-07T11:43:11;8.60;;;4.10;;
70707;SDS011;58277;47.316;18.908;2024-01-07T11:45:34;8.20;;;4.40;;
70707;SDS011;58277;47.316;18.908;2024-01-07T11:47:57;8.07;;;4.47;;
70707;SDS011;58277;47.316;18.908;2024-01-07T11:50:20;8.83;;;4.50;;
70707;SDS011;58277;47.316;18.908;2024-01-07T11:52:42;8.80;;;4.15;;
70707;SDS011;58277;47.316;18.908;2024-01-07T11:55:05;7.30;;;4.15;;
70707;SDS011;58277;47.316;18.908;2024-01-07T11:57:30;7.18;;;3.90;;
70707;SDS011;58277;47.316;18.908;2024-01-07T11:59:53;8.15;;;4.13;;
70707;SDS011;58277;47.316;18.908;2024-01-07T12:02:16;7.00;;;3.83;;
70707;SDS011;58277;47.316;18.908;2024-01-07T12:04:39;6.90;;;4.00;;
70707;SDS011;58277;47.316;18.908;2024-01-07T12:07:02;7.25;;;3.83;;
70707;SDS011;58277;47.316;18.908;2024-01-07T12:09:27;8.63;;;3.80;;
70707;SDS011;58277;47.316;18.908;2024-01-07T12:11:50;7.32;;;3.90;;
70707;SDS011;58277;47.316;18.908;2024-01-07T12:14:13;7.93;;;4.10;;
70707;SDS011;58277;47.316;18.908;2024-01-07T12:16:36;7.50;;;3.67;;
70707;SDS011;58277;47.316;18.908;2024-01-07T12:18:59;8.27;;;4.30;;
70707;SDS011;58277;47.316;18.908;2024-01-07T12:21:22;7.20;;;3.75;;
70707;SDS011;58277;47.316;18.908;2024-01-07T12:23:47;8.85;;;4.32;;
70707;SDS011;58277;47.316;18.908;2024-01-07T12:26:11;9.30;;;4.40;;
70707;SDS011;58277;47.316;18.908;2024-01-07T12:28:34;9.65;;;4.30;;
70707;SDS011;58277;47.316;18.908;2024-01-07T12:30:56;9.13;;;4.57;;
70707;SDS011;58277;47.316;18.908;2024-01-07T12:33:19;10.60;;;4.65;;
70707;SDS011;58277;47.316;18.908;2024-01-07T12:35:43;10.00;;;4.65;;
70707;SDS011;58277;47.316;18.908;2024-01-07T12:38:05;9.63;;;4.70;;
70707;SDS011;58277;47.316;18.908;2024-01-07T12:40:28;9.93;;;4.88;;
70707;SDS011;58277;47.316;18.908;2024-01-07T12:42:51;10.05;;;4.68;;
70707;SDS011;58277;47.316;18.908;2024-01-07T12:45:14;9.52;;;4.63;;
70707;SDS011;58277;47.316;18.908;2024-01-07T12:47:38;10.65;;;4.68;;
70707;SDS011;58277;47.316;18.908;2024-01-07T12:50:00;8.73;;;4.77;;
70707;SDS011;58277;47.316;18.908;2024-01-07T12:52:24;10.63;;;4.60;;
70707;SDS011;58277;47.316;18.908;2024-01-07T12:54:46;8.82;;;4.50;;
70707;SDS011;58277;47.316;18.908;2024-01-07T12:57:09;9.20;;;4.72;;
70707;SDS011;58277;47.316;18.908;2024-01-07T12:59:32;9.85;;;4.85;;
70707;SDS011;58277;47.316;18.908;2024-01-07T13:01:55;9.73;;;4.53;;
70707;SDS011;58277;47.316;18.908;2024-01-07T13:04:18;9.98;;;4.57;;
70707;SDS011;58277;47.316;18.908;2024-01-07T13:06:42;9.85;;;5.38;;
70707;SDS011;58277;47.316;18.908;2024-01-07T13:09:05;12.13;;;5.43;;
70707;SDS011;58277;47.316;18.908;2024-01-07T13:11:28;10.73;;;5.63;;
70707;SDS011;58277;47.316;18.908;2024-01-07T13:13:51;11.30;;;5.93;;
70707;SDS011;58277;47.316;18.908;2024-01-07T13:16:14;11.10;;;5.55;;
70707;SDS011;58277;47.316;18.908;2024-01-07T13:18:37;11.60;;;5.50;;
70707;SDS011;58277;47.316;18.908;2024-01-07T13:21:00;12.70;;;6.20;;
70707;SDS011;58277;47.316;18.908;2024-01-07T13:23:23;11.82;;;5.90;;
70707;SDS011;58277;47.316;18.908;2024-01-07T13:25:47;13.17;;;6.13;;
70707;SDS011;58277;47.316;18.908;2024-01-07T13:28:10;12.38;;;6.35;;
70707;SDS011;58277;47.316;18.908;2024-01-07T13:30:33;13.25;;;6.50;;
70707;SDS011;58277;47.316;18.908;2024-01-07T13:32:57;13.15;;;6.45;;
70707;SDS011;58277;47.316;18.908;2024-01-07T13:35:22;13.88;;;6.63;;
70707;SDS011;58277;47.316;18.908;2024-01-07T13:37:45;13.20;;;6.47;;
70707;SDS011;58277;47.316;18.908;2024-01-07T13:40:09;15.48;;;7.13;;
70707;SDS011;58277;47.316;18.908;2024-01-07T13:42:33;15.27;;;7.35;;
70707;SDS011;58277;47.316;18.908;2024-01-07T13:44:56;15.57;;;7.30;;
70707;SDS011;58277;47.316;18.908;2024-01-07T13:47:20;14.80;;;6.93;;
70707;SDS011;58277;47.316;18.908;2024-01-07T13:49:43;15.10;;;7.73;;
70707;SDS011;58277;47.316;18.908;2024-01-07T13:52:09;15.77;;;7.35;;
70707;SDS011;58277;47.316;18.908;2024-01-07T13:54:35;16.92;;;7.63;;
70707;SDS011;58277;47.316;18.908;2024-01-07T13:56:58;15.85;;;7.00;;
70707;SDS011;58277;47.316;18.908;2024-01-07T13:59:22;16.33;;;7.32;;
70707;SDS011;58277;47.316;18.908;2024-01-07T14:01:45;16.20;;;7.20;;
70707;SDS011;58277;47.316;18.908;2024-01-07T14:04:08;14.65;;;6.65;;
70707;SDS011;58277;47.316;18.908;2024-01-07T14:06:31;14.30;;;7.50;;
70707;SDS011;58277;47.316;18.908;2024-01-07T14:08:54;14.15;;;6.85;;